Latest Coastal Weather Observations for Cape Jaffa

IDS60701

Issued at 4:41 am CST Monday 26 September 2016 (issued every 10 minutes, with the page automatically refreshed every 10 minutes)

About coastal observations | Map of coastal stations | Coastal observations for SA | Marine services | Other Formats
Station Details ID: 026095 Name: THE LIMESTONE Lat: -36.97 Lon: 139.72 Height: 17.0 m
Data from the previous 72 hours. | See also: Recent months at Cape Jaffa
Date/Time
CST
Temp
°C
Wind Pressure Rain since
9am
mm
Weather Cloud Vis
km
Sea
Height
m
Swell
Dir  Spd
kts
Gust
kts
hPa Trend Height
m
Period
s
Dir
26/04:30am 11.0 N 12 16 1010.5 - 0.8 - - - - - - -
26/04:00am 11.0 NNW 10 16 1010.9 - 0.8 - - - - - - -
26/03:30am 11.0 NNW 11 14 1011.3 - 0.8 - - - - - - -
26/03:00am 11.0 NW 10 13 1011.5 - 0.8 - - - - - - -
26/02:30am 11.0 NW 8 11 1011.9 - 0.8 - - - - - - -
26/02:00am 10.6 NW 5 9 1012.3 - 0.8 - - - - - - -
26/01:30am 10.9 NNW 9 13 1012.7 - 0.0 - - - - - - -
26/01:00am 11.6 NNW 10 13 1013.0 - 0.0 - - - - - - -
26/12:30am 11.8 NW 9 13 1013.4 - 0.0 - - - - - - -
26/12:00am 11.7 NW 8 11 1013.5 - 0.0 - - - - - - -
 
Date/Time
CST
Temp
°C
Wind Pressure Rain since
9am
mm
Weather Cloud Vis
km
Sea
Height
m
Swell
Dir  Spd
kts
Gust
kts
hPa Trend Height
m
Period
s
Dir
25/11:30pm 11.7 NW 9 13 1013.7 - 0.0 - - - - - - -
25/11:00pm 11.3 NNW 8 10 1013.9 - 0.0 - - - - - - -
25/10:30pm 10.8 NW 7 10 1014.0 - 0.0 - - - - - - -
25/10:00pm 10.2 NW 6 9 1014.3 - 0.0 - - - - - - -
25/09:30pm 8.8 N 5 7 1014.3 - 0.0 - - - - - - -
25/09:00pm 9.7 N 7 9 1014.1 - 0.0 - - - - - - -
25/08:30pm 9.5 NNW 4 5 1014.1 - 0.0 - - - - - - -
25/08:00pm 10.6 NNW 8 10 1014.1 - 0.0 - - - - - - -
25/07:30pm 11.2 NW 10 15 1014.1 - 0.0 - - - - - - -
25/07:00pm 11.1 NNW 8 10 1013.7 - 0.0 - - - - - - -
25/06:30pm 10.8 NW 4 7 1013.6 - 0.0 - - - - - - -
25/06:00pm 10.4 W 2 3 1013.4 - 0.0 - - - - - - -
25/05:30pm 11.0 W 4 5 1013.1 - 0.0 - - - - - - -
25/05:00pm 12.2 WNW 6 9 1013.1 - 0.0 - - - - - - -
25/04:30pm 13.2 NW 7 10 1012.9 - 0.0 - - - - - - -
25/04:00pm 12.3 NW 7 10 1012.7 - 0.0 - - - - - - -
25/03:30pm 12.2 N 5 8 1012.5 - 0.0 - - - - - - -
25/03:00pm 12.6 NW 7 9 1013.0 - 0.0 - - - - - - -
25/02:30pm 12.8 NW 6 10 1013.1 - 0.0 - - - - - - -
25/02:00pm 12.7 W 7 12 1013.1 - 0.0 - - - - - - -
25/01:30pm 12.6 W 6 9 1013.1 - 0.0 - - - - - - -
25/01:00pm 13.6 W 6 9 1013.4 - 0.0 - - - - - - -
25/12:30pm 13.4 W 7 10 1013.7 - 0.0 - - - - - - -
25/12:00pm 13.2 WSW 9 13 1014.0 - 0.0 - - - - - - -
25/11:30am 12.7 W 7 9 1014.0 - 0.0 - - - - - - -
25/11:00am 11.9 WNW 6 9 1014.4 - 0.0 - - - - - - -
25/10:30am 12.1 WSW 12 17 1014.6 - 0.0 - - - - - - -
25/10:00am 12.8 SW 11 15 1014.6 - 0.0 - - - - - - -
25/09:30am 12.4 WSW 12 16 1014.4 - 0.0 - - - - - - -
25/09:00am 11.7 SW 11 16 1014.4 - 2.6 - - - - - - -
25/08:30am 10.9 SW 9 13 1014.2 - 2.6 - - - - - - -
25/08:00am 11.2 W 12 16 1013.7 - 2.6 - - - - - - -
25/07:30am 10.9 WSW 10 14 1013.3 - 2.6 - - - - - - -
25/07:00am 9.2 W 5 7 1013.0 - 2.6 - - - - - - -
25/06:30am 9.3 W 6 8 1012.8 - 2.6 - - - - - - -
25/06:00am 10.2 WSW 16 21 1012.3 - 2.6 - - - - - - -
25/05:30am 9.7 WSW 13 17 1011.7 - 2.6 - - - - - - -
25/05:00am 9.9 WSW 14 18 1011.5 - 2.6 - - - - - - -
25/04:30am 10.1 WSW 15 20 1011.0 - 2.6 - - - - - - -
25/04:00am 9.9 WSW 13 17 1010.6 - 2.6 - - - - - - -
25/03:30am 10.4 WSW 14 18 1010.5 - 2.6 - - - - - - -
25/03:00am 10.3 WSW 13 17 1010.3 - 2.6 - - - - - - -
25/02:30am 10.3 WSW 13 18 1010.2 - 2.6 - - - - - - -
25/02:00am 10.2 SW 14 21 1010.4 - 2.6 - - - - - - -
25/01:30am 10.2 WSW 14 18 1010.5 - 2.6 - - - - - - -
25/01:00am 10.2 W 14 21 1010.4 - 2.6 - - - - - - -
25/12:30am 10.1 SW 15 19 1010.4 - 2.6 - - - - - - -
25/12:00am 10.4 WSW 15 19 1010.3 - 2.6 - - - - - - -
 
Date/Time
CST
Temp
°C
Wind Pressure Rain since
9am
mm
Weather Cloud Vis
km
Sea
Height
m
Swell
Dir  Spd
kts
Gust
kts
hPa Trend Height
m
Period
s
Dir
24/11:30pm 10.4 WSW 14 18 1010.2 - 2.6 - - - - - - -
24/11:00pm 10.5 WSW 14 20 1010.3 - 2.6 - - - - - - -
24/10:30pm 10.7 WSW 16 21 1010.1 - 2.6 - - - - - - -
24/10:00pm 10.7 WSW 16 21 1009.9 - 2.6 - - - - - - -
24/09:30pm 11.2 WSW 19 25 1009.7 - 2.6 - - - - - - -
24/09:00pm 10.9 WSW 15 19 1009.6 - 2.6 - - - - - - -
24/08:30pm 11.4 WSW 16 21 1009.4 - 2.6 - - - - - - -
24/08:00pm 11.6 WSW 14 19 1009.1 - 2.6 - - - - - - -
24/07:30pm 11.4 WSW 15 21 1008.5 - 2.6 - - - - - - -
24/07:00pm 11.6 WSW 15 20 1008.0 - 2.6 - - - - - - -
24/06:30pm 11.5 SW 14 20 1007.6 - 2.6 - - - - - - -
24/06:00pm 12.1 WSW 16 21 1007.1 - 2.6 - - - - - - -
24/05:30pm 12.3 SW 14 19 1006.6 - 2.6 - - - - - - -
24/05:00pm 12.4 WSW 17 24 1006.1 - 2.6 - - - - - - -
24/04:30pm 12.0 WSW 19 27 1005.5 - 2.6 - - - - - - -
24/04:00pm 13.6 WSW 19 24 1004.9 - 2.6 - - - - - - -
24/03:30pm 14.0 WSW 15 20 1004.6 - 2.6 - - - - - - -
24/03:00pm 13.6 WSW 18 23 1004.4 - 2.6 - - - - - - -
24/02:30pm 13.1 WSW 21 28 1003.9 - 2.6 - - - - - - -
24/02:00pm 14.3 WSW 16 20 1003.6 - 2.6 - - - - - - -
24/01:30pm 13.2 WSW 15 20 1003.3 - 2.6 - - - - - - -
24/01:00pm 13.8 NW 14 19 1003.3 - 2.6 - - - - - - -
24/12:30pm 13.8 NNW 15 19 1003.3 - 2.4 - - - - - - -
24/12:00pm 14.1 NNW 13 17 1003.4 - 2.0 Rain - - - - - -
24/11:30am 13.8 N 13 18 1003.5 - 1.8 - - - - - - -
24/11:00am 13.8 N 14 17 1003.5 - 0.8 - - - - - - -
24/10:30am 13.5 N 17 22 1003.9 - 0.6 - - - - - - -
24/10:00am 14.4 N 12 16 1003.8 - 0.0 - - - - - - -
24/09:30am 13.6 N 11 14 1004.1 - 0.0 - - - - - - -
24/09:00am 13.5 N 12 15 1004.2 - 0.2 Recent precip. - - - - - -
24/08:30am 13.3 N 12 15 1004.4 - 0.0 - - - - - - -
24/08:00am 13.0 NNE 12 16 1004.4 - 0.0 - - - - - - -
24/07:30am 12.4 NNE 11 15 1004.4 - 0.0 - - - - - - -
24/07:00am 12.5 NNE 10 13 1004.0 - 0.0 - - - - - - -
24/06:30am 12.5 NNE 9 12 1003.8 - 0.0 - - - - - - -
24/06:00am 12.4 NNE 10 13 1003.6 - 0.0 - - - - - - -
24/05:30am 12.2 NNE 10 13 1003.5 - 0.0 - - - - - - -
24/05:00am 12.2 NNE 10 12 1003.4 - 0.0 - - - - - - -
24/04:30am 12.3 NNE 11 15 1003.4 - 0.0 - - - - - - -
24/04:00am 12.2 NNE 11 14 1003.9 - 0.0 - - - - - - -
24/03:30am 12.2 NNE 12 16 1003.8 - 0.0 - - - - - - -
24/03:00am 12.2 NNE 13 16 1004.2 - 0.0 - - - - - - -
24/02:30am 11.4 NNE 11 15 1004.9 - 0.0 - - - - - - -
24/02:00am 9.4 NE 9 11 1005.1 - 0.0 - - - - - - -
24/01:30am 9.8 NE 11 13 1005.4 - 0.0 - - - - - - -
24/01:00am 9.7 NE 10 12 1006.1 - 0.0 - - - - - - -
24/12:30am 9.4 NE 9 13 1006.5 - 0.0 - - - - - - -
24/12:00am 9.3 NE 9 11 1006.9 - 0.0 - - - - - - -
 
Date/Time
CST
Temp
°C
Wind Pressure Rain since
9am
mm
Weather Cloud Vis
km
Sea
Height
m
Swell
Dir  Spd
kts
Gust
kts
hPa Trend Height
m
Period
s
Dir
23/11:30pm 8.6 ENE 8 8 1007.2 - 0.0 - - - - - - -
23/11:00pm 9.2 ENE 9 11 1007.1 - 0.0 - - - - - - -
23/10:30pm 9.7 ENE 9 10 1007.4 - 0.0 - - - - - - -
23/10:00pm 9.6 ENE 9 10 1007.7 - 0.0 - - - - - - -
23/09:30pm 9.1 ENE 8 8 1007.6 - 0.0 - - - - - - -
23/09:00pm 9.3 ENE 7 8 1008.0 - 0.0 - - - - - - -
23/08:30pm 9.8 E 8 9 1008.3 - 0.0 - - - - - - -
23/08:00pm 10.3 ESE 8 9 1008.4 - 0.0 - - - - - - -
23/07:30pm 10.1 ESE 6 7 1008.6 - 0.0 - - - - - - -
23/07:00pm 10.0 SE 5 6 1009.1 - 0.0 - - - - - - -
23/06:30pm 10.5 SSE 5 6 1009.1 - 0.0 - - - - - - -
23/06:00pm 11.3 SSW 4 5 1009.2 - 0.0 - - - - - - -
23/05:30pm 13.5 SW 4 5 1009.5 - 0.0 - - - - - - -
23/05:00pm 14.0 SSW 5 5 1009.2 - 0.0 - - - - - - -
23/04:30pm 15.9 WSW 2 5 1009.3 - 0.0 - - - - - - -
23/04:00pm 15.5 WNW 2 4 1009.4 - 0.0 - - - - - - -
23/03:30pm 14.7 NW 4 6 1009.5 - 0.0 - - - - - - -
23/03:00pm 14.6 N 6 7 1009.8 - 0.0 - - - - - - -
23/02:30pm 14.6 N 6 9 1010.2 - 0.0 - - - - - - -
23/02:00pm 14.1 N 8 11 1010.4 - 0.0 - - - - - - -
23/01:30pm 14.4 NNE 11 14 1010.7 - 0.0 - - - - - - -
23/01:00pm 13.9 N 11 15 1011.6 - 0.0 - - - - - - -
23/12:30pm 14.2 NNE 13 16 1012.1 - 0.0 - - - - - - -
23/12:00pm 14.0 NNE 13 16 1012.4 - 0.0 - - - - - - -
23/11:30am 13.6 NNE 14 18 1012.7 - 0.0 - - - - - - -
23/11:00am 12.9 NE 14 19 1013.1 - 0.0 - - - - - - -
23/10:30am 12.5 NNE 15 19 1013.9 - 0.0 - - - - - - -
23/10:00am 12.4 NNE 16 21 1014.3 - 0.0 - - - - - - -
23/09:30am 11.5 NNE 16 20 1014.7 - 0.0 - - - - - - -
23/09:00am 10.6 NE 16 20 1014.9 - 0.0 - - - - - - -
23/08:30am 10.0 NE 14 18 1015.5 - 0.0 - - - - - - -
23/08:00am 8.5 NE 10 13 1015.9 - 0.0 - - - - - - -
23/07:30am 6.9 ENE 6 8 1016.2 - 0.0 - - - - - - -
23/07:00am 4.7 ENE 4 4 1016.5 - 0.0 - - - - - - -
23/06:30am 3.2 ENE 6 7 1016.5 - 0.0 - - - - - - -
23/06:00am 3.3 E 6 7 1016.6 - 0.0 - - - - - - -
23/05:30am 4.2 E 6 7 1016.9 - 0.0 - - - - - - -
23/05:00am 4.5 ESE 6 7 1017.0 - 0.0 - - - - - - -

Other Formats:

Comma delimited format used in spreadsheet applications
http://www.bom.gov.au/fwo/IDS60701/IDS60701.94813.axf

JavaScript Object Notation format (JSON) in row-major order
http://www.bom.gov.au/fwo/IDS60701/IDS60701.94813.json